Time;durP1;ratioP1;P1;durP2;ratioP2;P2;SDS_P1;SDS_P2;PMS_P1;PMS_P2;Temp;Humidity;BMP_temperature;BMP_pressure;BME280_temperature;BME280_humidity;BME280_pressure;Samples;Min_cycle;Max_cycle;Signal;HPM_P1;HPM_P2
2023/08/02 00:01:21;;;;;;;5.60;3.70;;;538.20;2406.40;;;;;;5089213;28;20020;-60
2023/08/02 00:03:46;;;;;;;6.32;3.55;;;538.10;2406.40;;;;;;5089656;28;20137;-60
2023/08/02 00:06:12;;;;;;;6.60;3.83;;;538.10;2406.40;;;;;;5072209;28;20112;-60
2023/08/02 00:08:38;;;;;;;6.15;3.22;;;538.10;2406.40;;;;;;5077172;28;20030;-60
2023/08/02 00:11:03;;;;;;;5.80;3.15;;;538.10;2406.40;;;;;;5092204;28;20032;-60
2023/08/02 00:13:30;;;;;;;6.20;3.33;;;538.20;2406.40;;;;;;5093640;28;20028;-61
2023/08/02 00:15:55;;;;;;;4.30;3.10;;;538.20;2406.40;;;;;;5093348;28;20424;-61
2023/08/02 00:18:21;;;;;;;4.05;3.05;;;538.10;2406.40;;;;;;5093320;28;20073;-60
2023/08/02 00:20:48;;;;;;;4.03;2.90;;;538.10;2406.40;;;;;;5092988;28;20024;-61
2023/08/02 00:23:14;;;;;;;4.93;2.70;;;538.00;2406.40;;;;;;5092916;28;20540;-61
2023/08/02 00:25:39;;;;;;;6.13;2.95;;;538.00;2406.40;;;;;;5093301;28;20115;-61
2023/08/02 00:28:05;;;;;;;7.43;3.17;;;538.00;2406.40;;;;;;5093234;28;20085;-60
2023/08/02 00:30:31;;;;;;;8.27;2.95;;;538.10;2406.40;;;;;;5093312;28;20534;-61
2023/08/02 00:32:57;;;;;;;4.43;3.15;;;538.00;2406.40;;;;;;5092666;28;20166;-61
2023/08/02 00:35:23;;;;;;;6.13;3.08;;;538.00;2406.40;;;;;;5091680;28;20401;-61
2023/08/02 00:38:05;;;;;;;5.50;3.50;;;538.10;2406.40;;;;;;5110737;28;20667;-60
2023/08/02 00:40:39;;;;;;;7.35;3.30;;;538.00;2406.40;;;;;;5108816;28;20040;-62
2023/08/02 00:43:06;;;;;;;5.40;3.03;;;538.10;2406.40;;;;;;5090575;28;20412;-62
2023/08/02 00:45:33;;;;;;;4.00;2.72;;;538.10;2406.40;;;;;;5076576;28;20074;-61
2023/08/02 00:51:20;;;;;;;6.05;3.05;;;538.00;2406.40;;;;;;5076266;28;20024;-60
2023/08/02 00:53:47;;;;;;;4.38;2.95;;;538.00;2406.40;;;;;;5074887;28;20033;-60
2023/08/02 00:56:15;;;;;;;8.68;3.30;;;538.00;2406.40;;;;;;5072767;28;20024;-61
2023/08/02 00:58:40;;;;;;;5.57;3.22;;;538.10;2406.40;;;;;;5072685;28;20023;-60
2023/08/02 01:01:07;;;;;;;4.05;3.00;;;538.00;2406.40;;;;;;5072673;28;20020;-60
2023/08/02 01:03:35;;;;;;;5.55;3.20;;;538.00;2406.40;;;;;;5071982;28;20036;-60
2023/08/02 01:06:25;;;;;;;7.15;3.00;;;538.00;2406.40;;;;;;5073619;28;20416;-61
2023/08/02 01:09:00;;;;;;;4.15;2.95;;;538.00;2406.40;;;;;;5081911;28;20031;-61
2023/08/02 01:11:34;;;;;;;6.00;3.22;;;538.10;2406.40;;;;;;5092199;28;20051;-61
2023/08/02 01:14:05;;;;;;;5.78;3.38;;;538.00;2406.40;;;;;;5092401;28;20027;-60
2023/08/02 01:16:32;;;;;;;5.20;3.30;;;538.10;2406.40;;;;;;5092090;28;20024;-60
2023/08/02 01:19:08;;;;;;;5.60;3.28;;;538.00;2406.40;;;;;;5092113;28;20028;-62
2023/08/02 01:21:33;;;;;;;4.03;2.63;;;538.00;2406.40;;;;;;5090732;28;20027;-60
2023/08/02 01:23:59;;;;;;;5.57;3.20;;;538.00;2406.40;;;;;;5092104;28;20032;-61
2023/08/02 01:26:28;;;;;;;11.98;3.58;;;538.00;2406.40;;;;;;5092180;28;20400;-60
2023/08/02 01:28:55;;;;;;;6.00;3.50;;;537.80;2406.40;;;;;;5092000;28;20035;-61
2023/08/02 01:31:22;;;;;;;10.13;3.15;;;537.70;2406.40;;;;;;5091644;28;20102;-61
2023/08/02 01:33:52;;;;;;;4.63;3.22;;;537.80;2406.40;;;;;;5090796;28;20389;-60
2023/08/02 01:36:18;;;;;;;4.78;3.13;;;537.60;2406.40;;;;;;5091886;28;20369;-61
2023/08/02 01:38:44;;;;;;;5.70;3.33;;;537.70;2406.40;;;;;;5091879;28;20478;-60
2023/08/02 01:41:09;;;;;;;4.57;3.17;;;537.60;2406.40;;;;;;5091411;28;20104;-60
2023/08/02 01:43:35;;;;;;;4.38;2.95;;;512.90;2380.80;;;;;;5091323;28;20040;-60
2023/08/02 01:46:01;;;;;;;8.95;3.60;;;537.60;2406.40;;;;;;5091867;28;20024;-61
2023/08/02 01:48:27;;;;;;;5.13;3.20;;;537.60;2406.40;;;;;;5091888;28;20375;-60
2023/08/02 01:50:52;;;;;;;6.95;3.50;;;537.60;2406.40;;;;;;5091521;28;20462;-61
2023/08/02 01:53:18;;;;;;;6.68;3.42;;;537.60;2406.40;;;;;;5091458;28;20076;-61
2023/08/02 01:55:45;;;;;;;6.47;3.08;;;537.60;2406.40;;;;;;5091737;28;20032;-61
2023/08/02 01:58:11;;;;;;;4.32;2.88;;;537.60;2406.40;;;;;;5091189;28;20012;-61
2023/08/02 02:00:36;;;;;;;6.43;3.22;;;512.90;2380.80;;;;;;5091548;28;20035;-61
2023/08/02 02:03:02;;;;;;;3.85;2.83;;;512.80;2380.80;;;;;;5091130;28;20031;-62
2023/08/02 02:05:27;;;;;;;5.72;3.30;;;512.70;2380.80;;;;;;5091395;28;20482;-60
2023/08/02 02:07:53;;;;;;;5.55;3.05;;;512.70;2380.80;;;;;;5091472;28;20093;-61
2023/08/02 02:10:19;;;;;;;7.35;3.53;;;512.80;2380.80;;;;;;5091171;28;20028;-60
2023/08/02 02:12:45;;;;;;;4.43;3.15;;;512.70;2380.80;;;;;;5091333;28;20024;-61
2023/08/02 02:15:11;;;;;;;5.65;2.85;;;512.60;2380.80;;;;;;5091005;28;20081;-60
2023/08/02 02:17:38;;;;;;;4.75;3.17;;;512.60;2380.80;;;;;;5091132;28;20028;-60
2023/08/02 02:20:04;;;;;;;4.07;2.70;;;512.70;2380.80;;;;;;5091083;28;20078;-61
2023/08/02 02:22:30;;;;;;;4.38;2.70;;;512.60;2380.80;;;;;;5090500;28;20086;-60
2023/08/02 02:24:56;;;;;;;4.90;3.05;;;512.70;2380.80;;;;;;5091302;28;20020;-60
2023/08/02 02:27:21;;;;;;;4.20;2.95;;;512.70;2380.80;;;;;;5091078;28;20051;-60
2023/08/02 02:29:47;;;;;;;4.47;3.35;;;512.70;2380.80;;;;;;5091061;28;20065;-60
2023/08/02 02:32:13;;;;;;;4.55;3.20;;;512.70;2380.80;;;;;;5090177;28;20065;-60
2023/08/02 02:34:38;;;;;;;4.57;2.70;;;512.70;2380.80;;;;;;5090855;28;20028;-61
2023/08/02 02:37:04;;;;;;;3.40;2.60;;;512.60;2380.80;;;;;;5090526;28;20020;-61
2023/08/02 02:39:30;;;;;;;7.38;3.83;;;512.70;2380.80;;;;;;5090872;28;20020;-61
2023/08/02 02:41:56;;;;;;;7.32;3.40;;;512.80;2380.80;;;;;;5090468;28;20541;-60
2023/08/02 02:44:21;;;;;;;5.93;2.78;;;512.70;2380.80;;;;;;5090646;28;20121;-61
2023/08/02 02:46:47;;;;;;;10.30;3.38;;;512.70;2380.80;;;;;;5090445;28;20016;-62
2023/08/02 02:49:13;;;;;;;5.32;3.10;;;512.80;2380.80;;;;;;5090322;28;20020;-60
2023/08/02 02:51:38;;;;;;;8.20;3.20;;;512.60;2380.80;;;;;;5090334;28;20496;-62
2023/08/02 02:54:04;;;;;;;9.23;3.63;;;512.70;2380.80;;;;;;5090599;28;20496;-60
2023/08/02 02:56:30;;;;;;;3.50;2.80;;;512.70;2380.80;;;;;;5090200;28;20103;-60
2023/08/02 02:58:55;;;;;;;7.38;3.65;;;512.70;2380.80;;;;;;5090615;28;20024;-61
2023/08/02 03:01:21;;;;;;;6.28;2.72;;;512.60;2380.80;;;;;;5090044;28;20408;-61
2023/08/02 03:03:47;;;;;;;4.57;2.88;;;512.50;2380.80;;;;;;5090485;28;20032;-60
2023/08/02 03:06:12;;;;;;;5.72;3.45;;;512.60;2380.80;;;;;;5090083;28;20102;-60
2023/08/02 03:08:38;;;;;;;4.90;3.60;;;512.70;2380.80;;;;;;5090063;28;20081;-61
2023/08/02 03:11:04;;;;;;;4.40;3.13;;;512.80;2380.80;;;;;;5090085;28;20021;-60
2023/08/02 03:13:29;;;;;;;5.32;3.03;;;512.90;2380.80;;;;;;5089874;28;20088;-60
2023/08/02 03:15:55;;;;;;;4.00;2.83;;;512.90;2380.80;;;;;;5089991;28;20032;-62
2023/08/02 03:18:21;;;;;;;4.85;3.35;;;512.90;2380.80;;;;;;5089860;28;20031;-60
2023/08/02 03:20:46;;;;;;;6.72;3.42;;;512.90;2380.80;;;;;;5089638;28;20082;-59
2023/08/02 03:23:12;;;;;;;3.78;2.80;;;512.90;2380.80;;;;;;5090028;28;20044;-59
2023/08/02 03:25:38;;;;;;;6.70;2.90;;;512.90;2380.80;;;;;;5089874;28;20039;-60
2023/08/02 03:28:03;;;;;;;4.55;3.15;;;512.70;2380.80;;;;;;5089897;28;20027;-60
2023/08/02 03:30:29;;;;;;;4.95;2.95;;;512.70;2380.80;;;;;;5089979;28;20381;-60
2023/08/02 03:32:55;;;;;;;3.88;2.80;;;512.90;2380.80;;;;;;5089753;28;20027;-62
2023/08/02 03:35:20;;;;;;;9.20;3.33;;;512.90;2380.80;;;;;;5089696;28;20012;-60
2023/08/02 03:37:46;;;;;;;5.10;3.05;;;537.60;2406.40;;;;;;5089872;28;20377;-61
2023/08/02 03:40:12;;;;;;;5.85;2.97;;;512.90;2380.80;;;;;;5089317;28;20043;-62
2023/08/02 03:42:37;;;;;;;5.30;2.92;;;512.90;2380.80;;;;;;5089799;28;20035;-61
2023/08/02 03:45:03;;;;;;;4.00;3.03;;;512.90;2380.80;;;;;;5088692;28;20023;-60
2023/08/02 03:47:29;;;;;;;4.03;3.20;;;512.90;2380.80;;;;;;5089090;28;20385;-61
2023/08/02 03:49:54;;;;;;;3.70;2.67;;;512.90;2380.80;;;;;;5089377;28;20493;-60
2023/08/02 03:52:20;;;;;;;6.63;3.10;;;512.90;2380.80;;;;;;5089070;28;20111;-60
2023/08/02 03:54:47;;;;;;;6.80;3.00;;;512.80;2380.80;;;;;;5089382;28;20051;-60
2023/08/02 03:57:13;;;;;;;3.00;2.13;;;512.80;2380.80;;;;;;5089421;28;20385;-61
2023/08/02 03:59:38;;;;;;;5.07;3.00;;;512.90;2380.80;;;;;;5089105;28;20023;-61
2023/08/02 04:02:04;;;;;;;4.35;3.00;;;512.90;2380.80;;;;;;5089348;28;20047;-59
2023/08/02 04:04:30;;;;;;;4.20;3.05;;;512.80;2380.80;;;;;;5088810;28;20054;-60
2023/08/02 04:06:55;;;;;;;4.30;3.05;;;512.80;2380.80;;;;;;5089352;28;20114;-60
2023/08/02 04:09:21;;;;;;;3.33;2.67;;;512.80;2380.80;;;;;;5089155;28;20125;-60
2023/08/02 04:11:47;;;;;;;4.97;3.60;;;512.80;2380.80;;;;;;5089669;28;20093;-61
2023/08/02 04:14:12;;;;;;;5.88;2.95;;;512.90;2380.80;;;;;;5089041;28;20485;-60
2023/08/02 04:16:38;;;;;;;5.57;3.22;;;512.90;2380.80;;;;;;5089547;28;20031;-60
2023/08/02 04:19:04;;;;;;;4.50;2.72;;;512.90;2380.80;;;;;;5088925;28;20020;-61
2023/08/02 04:21:29;;;;;;;5.80;2.63;;;537.60;2406.40;;;;;;5088929;28;20567;-60
2023/08/02 04:23:55;;;;;;;14.57;3.65;;;537.60;2406.40;;;;;;5088773;28;20030;-61
2023/08/02 04:26:21;;;;;;;9.93;3.72;;;537.60;2406.40;;;;;;5088912;28;20029;-59
2023/08/02 04:28:47;;;;;;;7.55;3.53;;;512.80;2380.80;;;;;;5088887;28;20041;-60
2023/08/02 04:31:14;;;;;;;6.35;3.72;;;512.80;2380.80;;;;;;5089001;28;20074;-61
2023/08/02 04:33:39;;;;;;;5.05;3.60;;;512.90;2380.80;;;;;;5088783;28;20016;-60
2023/08/02 04:36:05;;;;;;;9.30;4.15;;;512.80;2380.80;;;;;;5088932;28;20492;-60
2023/08/02 04:38:31;;;;;;;6.63;3.90;;;512.80;2380.80;;;;;;5089032;28;20028;-61
2023/08/02 04:40:57;;;;;;;7.80;3.58;;;512.80;2380.80;;;;;;5089105;28;20071;-61
2023/08/02 04:43:23;;;;;;;8.13;3.83;;;512.90;2380.80;;;;;;5088653;28;20093;-61
2023/08/02 04:45:49;;;;;;;12.93;3.70;;;537.60;2406.40;;;;;;5088794;28;20020;-61
2023/08/02 04:48:15;;;;;;;6.60;4.22;;;537.60;2406.40;;;;;;5088810;28;20245;-60
2023/08/02 04:50:40;;;;;;;4.50;3.60;;;537.60;2406.40;;;;;;5088524;28;20067;-61
2023/08/02 04:53:06;;;;;;;8.55;4.25;;;512.90;2380.80;;;;;;5088988;28;20052;-61
2023/08/02 04:55:44;;;;;;;6.63;4.30;;;537.60;2406.40;;;;;;5089362;28;20028;-60
2023/08/02 04:58:10;;;;;;;6.38;4.82;;;512.90;2380.80;;;;;;5092395;28;20024;-61
2023/08/02 05:00:35;;;;;;;9.82;7.20;;;512.90;2380.80;;;;;;5093023;28;20030;-60
2023/08/02 05:03:01;;;;;;;10.90;6.68;;;512.90;2380.80;;;;;;5092075;28;20092;-61
2023/08/02 05:05:27;;;;;;;7.47;5.82;;;537.60;2406.40;;;;;;5092392;28;20020;-61
2023/08/02 05:07:52;;;;;;;5.15;4.55;;;537.60;2406.40;;;;;;5092221;28;20020;-62
2023/08/02 05:10:18;;;;;;;5.40;4.55;;;512.90;2380.80;;;;;;5092498;28;20169;-60
2023/08/02 05:12:44;;;;;;;5.72;3.90;;;537.60;2406.40;;;;;;5092391;28;20020;-61
2023/08/02 05:15:10;;;;;;;5.45;3.78;;;512.80;2380.80;;;;;;5092146;28;20176;-61
2023/08/02 05:17:35;;;;;;;11.80;4.95;;;512.80;2380.80;;;;;;5092346;28;20036;-60
2023/08/02 05:20:01;;;;;;;5.30;4.20;;;512.80;2380.80;;;;;;5091873;28;20103;-61
2023/08/02 05:22:27;;;;;;;5.50;3.97;;;512.80;2380.80;;;;;;5091870;28;20039;-61
2023/08/02 05:24:53;;;;;;;6.22;4.18;;;512.90;2380.80;;;;;;5092191;28;20052;-61
2023/08/02 05:27:19;;;;;;;8.60;5.35;;;512.90;2380.80;;;;;;5091750;28;20020;-61
2023/08/02 05:29:44;;;;;;;7.50;4.65;;;512.70;2380.80;;;;;;5077080;28;20020;-61
2023/08/02 05:32:10;;;;;;;6.68;4.60;;;512.80;2380.80;;;;;;5078105;28;20021;-61
2023/08/02 05:34:36;;;;;;;10.68;5.30;;;512.90;2380.80;;;;;;5091560;28;20046;-61
2023/08/02 05:37:02;;;;;;;6.97;4.60;;;512.90;2380.80;;;;;;5092071;28;20031;-61
2023/08/02 05:39:28;;;;;;;6.30;5.43;;;537.60;2406.40;;;;;;5091743;28;20422;-60
2023/08/02 05:41:53;;;;;;;8.27;5.15;;;537.80;2406.40;;;;;;5091792;28;20048;-62
2023/08/02 05:44:19;;;;;;;6.47;4.85;;;537.90;2406.40;;;;;;5091550;28;20020;-61
2023/08/02 05:46:45;;;;;;;7.07;5.28;;;537.90;2406.40;;;;;;5085645;28;20115;-61
2023/08/02 05:49:10;;;;;;;7.22;5.20;;;538.00;2406.40;;;;;;5071454;28;20458;-61
2023/08/02 05:51:36;;;;;;;6.95;5.07;;;538.00;2406.40;;;;;;5071067;28;20427;-62
2023/08/02 05:54:02;;;;;;;7.10;5.25;;;537.90;2406.40;;;;;;5071352;28;20035;-63
2023/08/02 05:56:27;;;;;;;6.22;4.88;;;538.00;2406.40;;;;;;5070181;28;20023;-61
2023/08/02 05:58:53;;;;;;;7.65;4.55;;;538.20;2406.40;;;;;;5071107;28;20040;-62
2023/08/02 06:01:19;;;;;;;10.32;5.35;;;538.00;2406.40;;;;;;5071003;28;20021;-61
2023/08/02 06:03:44;;;;;;;4.85;4.35;;;537.90;2406.40;;;;;;5071285;28;20028;-60
2023/08/02 06:06:10;;;;;;;9.00;4.88;;;538.00;2406.40;;;;;;5070569;28;20449;-61
2023/08/02 06:08:37;;;;;;;6.00;3.80;;;538.20;2406.40;;;;;;5070771;28;20033;-61
2023/08/02 06:11:02;;;;;;;5.97;4.82;;;538.50;2406.40;;;;;;5074915;28;20047;-61
2023/08/02 06:13:29;;;;;;;5.40;3.92;;;563.20;2432.00;;;;;;5091249;28;20092;-61
2023/08/02 06:15:55;;;;;;;5.32;3.80;;;563.40;2432.00;;;;;;5091396;28;20044;-61
2023/08/02 06:18:20;;;;;;;4.85;3.72;;;563.20;2432.00;;;;;;5091005;28;20534;-63
2023/08/02 06:20:46;;;;;;;7.93;3.42;;;563.20;2432.00;;;;;;5090699;28;20165;-61
2023/08/02 06:23:12;;;;;;;5.18;4.03;;;563.20;2432.00;;;;;;5090743;28;20044;-61
2023/08/02 06:25:37;;;;;;;6.43;3.60;;;538.50;2406.40;;;;;;5091132;28;20047;-61
2023/08/02 06:28:03;;;;;;;6.28;4.18;;;538.30;2406.40;;;;;;5090709;28;20488;-60
2023/08/02 06:30:29;;;;;;;5.15;3.22;;;538.20;2406.40;;;;;;5091181;28;20024;-61
2023/08/02 06:32:55;;;;;;;5.22;3.33;;;538.20;2406.40;;;;;;5090844;28;20050;-61
2023/08/02 06:35:20;;;;;;;4.57;3.65;;;538.30;2406.40;;;;;;5090251;28;20125;-61
2023/08/02 06:37:46;;;;;;;5.20;3.53;;;538.30;2406.40;;;;;;5090640;28;20085;-61
2023/08/02 06:40:12;;;;;;;4.65;3.35;;;538.30;2406.40;;;;;;5090375;28;20127;-60
2023/08/02 06:42:37;;;;;;;6.07;3.47;;;538.40;2406.40;;;;;;5078041;28;20036;-61
2023/08/02 06:45:04;;;;;;;5.50;4.28;;;538.50;2406.40;;;;;;5088968;28;20021;-61
2023/08/02 06:47:29;;;;;;;9.18;3.70;;;538.50;2406.40;;;;;;5090580;28;20028;-62
2023/08/02 06:49:55;;;;;;;6.75;3.88;;;563.20;2432.00;;;;;;5090129;28;20351;-61
2023/08/02 06:52:21;;;;;;;4.75;3.33;;;563.40;2432.00;;;;;;5089968;28;20066;-62
2023/08/02 06:54:50;;;;;;;7.03;3.60;;;563.50;2432.00;;;;;;5090460;28;20036;-65
2023/08/02 06:57:16;;;;;;;4.20;3.08;;;563.50;2432.00;;;;;;5090464;28;20024;-65
2023/08/02 06:59:42;;;;;;;4.03;3.10;;;563.50;2432.00;;;;;;5090125;28;20028;-65
2023/08/02 07:02:07;;;;;;;4.68;3.03;;;563.40;2432.00;;;;;;5090470;28;20373;-61
2023/08/02 07:04:33;;;;;;;5.22;3.17;;;563.20;2432.00;;;;;;5089506;28;20058;-60
2023/08/02 07:06:59;;;;;;;5.63;3.42;;;563.20;2432.00;;;;;;5089919;28;20643;-66
2023/08/02 07:09:27;;;;;;;7.70;3.42;;;563.20;2432.00;;;;;;5089656;28;20106;-67
2023/08/02 07:11:53;;;;;;;5.70;3.17;;;563.20;2432.00;;;;;;5081255;28;20036;-62
2023/08/02 07:14:19;;;;;;;6.68;3.78;;;563.20;2432.00;;;;;;5089767;28;20121;-61
2023/08/02 07:16:45;;;;;;;4.78;3.67;;;563.20;2432.00;;;;;;5087525;28;20157;-63
2023/08/02 07:19:11;;;;;;;5.50;3.10;;;563.40;2432.00;;;;;;5077305;28;20020;-62
2023/08/02 07:21:39;;;;;;;4.45;2.90;;;563.50;2432.00;;;;;;5089190;28;20111;-62
2023/08/02 07:24:05;;;;;;;5.07;3.45;;;563.50;2432.00;;;;;;5089802;28;20161;-61
2023/08/02 07:26:30;;;;;;;4.13;3.08;;;563.50;2432.00;;;;;;5089686;28;20095;-61
2023/08/02 07:28:56;;;;;;;3.85;2.88;;;563.60;2432.00;;;;;;5089716;28;20024;-61
2023/08/02 07:31:21;;;;;;;5.13;2.75;;;563.60;2432.00;;;;;;5089569;28;20573;-61
2023/08/02 07:33:47;;;;;;;10.57;9.40;;;563.80;2432.00;;;;;;5089828;28;20023;-61
2023/08/02 07:36:15;;;;;;;66.82;58.65;;;564.00;2432.00;;;;;;5089124;28;20110;-61
2023/08/02 07:38:42;;;;;;;4.30;2.83;;;588.80;2432.00;;;;;;5089128;28;20013;-65
2023/08/02 07:41:08;;;;;;;8.02;3.38;;;588.80;2432.00;;;;;;5089378;28;20051;-64
2023/08/02 07:43:34;;;;;;;5.50;3.60;;;588.80;2432.00;;;;;;5089166;28;20433;-61
2023/08/02 07:45:59;;;;;;;4.60;2.75;;;564.10;2432.00;;;;;;5089013;28;20020;-61
2023/08/02 07:48:25;;;;;;;4.18;2.60;;;588.80;2432.00;;;;;;5089183;28;20374;-61
2023/08/02 07:50:51;;;;;;;3.53;2.47;;;564.10;2432.00;;;;;;5084844;28;20020;-63
2023/08/02 07:53:16;;;;;;;3.97;2.78;;;564.10;2432.00;;;;;;5079642;28;20107;-64
2023/08/02 07:55:42;;;;;;;5.13;2.95;;;588.80;2432.00;;;;;;5089236;28;20024;-64
2023/08/02 07:58:08;;;;;;;3.80;2.53;;;589.20;2432.00;;;;;;5089418;28;20028;-64
2023/08/02 08:00:34;;;;;;;5.88;2.95;;;589.20;2432.00;;;;;;5089718;28;20034;-61
2023/08/02 08:03:03;;;;;;;4.18;2.80;;;589.10;2432.00;;;;;;5088724;28;20036;-61
2023/08/02 08:05:29;;;;;;;5.10;2.60;;;589.10;2432.00;;;;;;5089219;28;20791;-61
2023/08/02 08:07:55;;;;;;;3.97;2.80;;;589.10;2432.00;;;;;;5089279;28;20022;-64
2023/08/02 08:10:21;;;;;;;5.70;2.17;;;589.00;2432.00;;;;;;5089153;28;20036;-61
2023/08/02 08:12:46;;;;;;;9.65;2.75;;;564.10;2432.00;;;;;;5089384;28;20524;-61
2023/08/02 08:15:12;;;;;;;4.85;2.03;;;564.10;2432.00;;;;;;5089214;28;20477;-61
2023/08/02 08:17:38;;;;;;;4.30;2.25;;;564.10;2432.00;;;;;;5089264;28;20021;-61
2023/08/02 08:20:05;;;;;;;7.15;2.63;;;563.90;2432.00;;;;;;5088989;28;20743;-61
2023/08/02 08:22:31;;;;;;;3.80;2.35;;;564.00;2432.00;;;;;;5088691;28;20120;-61
2023/08/02 08:24:57;;;;;;;3.88;2.35;;;563.90;2432.00;;;;;;5088805;28;20056;-61
2023/08/02 08:27:22;;;;;;;3.00;1.98;;;563.80;2432.00;;;;;;5089173;28;20560;-61
2023/08/02 08:29:48;;;;;;;3.28;2.20;;;563.80;2432.00;;;;;;5089094;28;20028;-61
2023/08/02 08:32:15;;;;;;;3.00;1.98;;;563.80;2432.00;;;;;;5092511;28;20055;-61
2023/08/02 08:34:42;;;;;;;3.83;2.28;;;563.80;2432.00;;;;;;5092755;28;20042;-65
2023/08/02 08:37:08;;;;;;;4.15;2.35;;;563.70;2432.00;;;;;;5093255;28;20026;-61
2023/08/02 08:39:37;;;;;;;4.22;2.08;;;563.70;2432.00;;;;;;5093150;28;20020;-61
2023/08/02 08:42:07;;;;;;;4.78;2.28;;;563.80;2432.00;;;;;;5092483;28;20113;-61
2023/08/02 08:44:36;;;;;;;3.00;2.20;;;564.00;2432.00;;;;;;5092972;28;20063;-61
2023/08/02 08:47:03;;;;;;;3.78;2.42;;;564.10;2432.00;;;;;;5079484;28;20362;-61
2023/08/02 08:49:29;;;;;;;5.30;2.40;;;589.10;2432.00;;;;;;5091092;28;20382;-63
2023/08/02 08:52:01;;;;;;;3.92;2.67;;;589.60;2432.00;;;;;;5092892;28;20032;-64
2023/08/02 08:54:28;;;;;;;3.45;2.40;;;614.60;2432.00;;;;;;5092863;28;20035;-61
2023/08/02 08:56:55;;;;;;;4.20;2.17;;;614.80;2432.00;;;;;;5093053;28;20048;-61
2023/08/02 08:59:22;;;;;;;2.67;1.85;;;640.20;2432.00;;;;;;5092250;28;20099;-67
2023/08/02 09:01:48;;;;;;;3.13;2.15;;;640.90;2432.00;;;;;;5092576;28;20150;-61
2023/08/02 09:04:14;;;;;;;3.70;2.72;;;666.20;2432.00;;;;;;5092380;28;20035;-61
2023/08/02 09:06:39;;;;;;;4.72;2.38;;;691.20;2432.00;;;;;;5092372;28;20024;-62
2023/08/02 09:09:05;;;;;;;3.40;2.42;;;691.70;2432.00;;;;;;5093547;28;20032;-66
2023/08/02 09:11:31;;;;;;;3.85;2.70;;;692.00;2432.00;;;;;;5077201;28;20386;-61
2023/08/02 09:14:12;;;;;;;3.13;2.58;;;692.10;2304.00;;;;;;5085826;28;20024;-61
2023/08/02 09:16:57;;;;;;;5.72;3.42;;;666.10;2380.80;;;;;;5072343;28;20110;-61
2023/08/02 09:19:26;;;;;;;4.15;2.80;;;691.20;2380.80;;;;;;5071645;28;20028;-62
2023/08/02 09:22:12;;;;;;;3.70;2.83;;;666.20;2355.20;;;;;;5071750;28;20125;-65
2023/08/02 09:24:40;;;;;;;3.67;2.55;;;691.20;2355.20;;;;;;5071955;28;20035;-65
2023/08/02 09:27:10;;;;;;;6.28;3.13;;;691.70;2278.40;;;;;;5072209;28;20050;-65
2023/08/02 09:29:51;;;;;;;3.85;2.50;;;691.20;2329.60;;;;;;5071918;28;20378;-64
2023/08/02 09:32:18;;;;;;;5.43;2.53;;;691.30;2304.00;;;;;;5071852;28;20024;-60
2023/08/02 09:34:57;;;;;;;3.70;2.50;;;691.20;2329.60;;;;;;5071741;28;20031;-64
2023/08/02 09:37:36;;;;;;;3.58;2.28;;;691.70;2278.40;;;;;;5078922;28;20040;-65
2023/08/02 09:40:09;;;;;;;7.03;2.95;;;692.00;2252.80;;;;;;5089217;28;20035;-65
2023/08/02 09:42:35;;;;;;;3.83;2.47;;;691.60;2227.20;;;;;;5070840;28;20044;-65
2023/08/02 09:45:06;;;;;;;5.07;2.60;;;666.50;2252.80;;;;;;5071763;28;20024;-65
2023/08/02 09:47:32;;;;;;;5.18;2.78;;;691.60;2252.80;;;;;;5071730;28;20028;-65
2023/08/02 09:50:09;;;;;;;8.27;3.38;;;692.00;2201.60;;;;;;5071556;28;20021;-60
2023/08/02 09:52:36;;;;;;;3.40;2.63;;;691.90;2227.20;;;;;;5071571;28;20391;-64
2023/08/02 09:55:03;;;;;;;5.57;2.65;;;716.90;2176.00;;;;;;5071343;28;20378;-67
2023/08/02 09:57:30;;;;;;;3.63;2.28;;;692.10;2176.00;;;;;;5071291;28;20025;-65
2023/08/02 10:00:02;;;;;;;4.68;2.70;;;717.20;2201.60;;;;;;5079416;28;20457;-66
2023/08/02 10:02:29;;;;;;;3.55;2.50;;;717.50;2099.20;;;;;;5076025;28;20094;-64
2023/08/02 10:04:59;;;;;;;4.90;2.47;;;717.40;2073.60;;;;;;5080736;28;20055;-63
2023/08/02 10:07:39;;;;;;;6.18;2.35;;;717.10;2073.60;;;;;;5090803;28;20027;-62
2023/08/02 10:10:07;;;;;;;5.60;2.47;;;742.40;2022.40;;;;;;5091876;28;20089;-61
2023/08/02 10:12:38;;;;;;;3.97;2.97;;;717.70;1996.80;;;;;;5090632;28;20385;-63
2023/08/02 10:15:05;;;;;;;7.63;3.15;;;717.20;2073.60;;;;;;5091439;28;20046;-63
2023/08/02 10:17:32;;;;;;;4.72;2.80;;;717.60;2073.60;;;;;;5090972;28;20020;-63
2023/08/02 10:20:03;;;;;;;5.07;3.20;;;742.50;2073.60;;;;;;5090870;28;20382;-63
2023/08/02 10:22:30;;;;;;;5.20;3.05;;;717.70;2022.40;;;;;;5090508;28;20385;-63
2023/08/02 10:24:57;;;;;;;6.40;2.38;;;717.20;2073.60;;;;;;5091059;28;20086;-62
2023/08/02 10:27:24;;;;;;;5.72;2.90;;;717.20;2022.40;;;;;;5090785;28;20016;-63
2023/08/02 10:29:51;;;;;;;4.32;2.88;;;717.60;1996.80;;;;;;5091236;28;20489;-63
2023/08/02 10:32:21;;;;;;;5.95;2.88;;;717.70;2022.40;;;;;;5090971;28;20100;-63
2023/08/02 10:34:51;;;;;;;5.80;3.42;;;742.70;2022.40;;;;;;5090808;28;20039;-63
2023/08/02 10:37:19;;;;;;;5.13;3.17;;;717.70;2022.40;;;;;;5090394;28;20516;-62
2023/08/02 10:39:48;;;;;;;6.72;3.58;;;742.60;2048.00;;;;;;5090990;28;20020;-61
2023/08/02 10:42:15;;;;;;;7.20;3.53;;;717.50;2048.00;;;;;;5090515;28;20052;-62
2023/08/02 10:44:56;;;;;;;4.28;2.83;;;742.60;2073.60;;;;;;5090757;28;20028;-63
2023/08/02 10:47:28;;;;;;;5.72;2.75;;;742.40;2048.00;;;;;;5090646;28;20023;-62
2023/08/02 10:49:54;;;;;;;4.30;2.90;;;742.40;2022.40;;;;;;5090225;28;20181;-62
2023/08/02 10:52:36;;;;;;;4.15;3.20;;;742.40;2022.40;;;;;;5090002;28;20054;-63
2023/08/02 10:55:09;;;;;;;6.70;2.97;;;717.70;1996.80;;;;;;5090158;28;20032;-63
2023/08/02 10:57:35;;;;;;;;;;;717.30;1945.60;;;;;;5089691;28;20024;-61
2023/08/02 11:00:19;;;;;;;14.02;11.95;;;717.40;1971.20;;;;;;5089846;28;19904;-62
2023/08/02 11:02:47;;;;;;;4.80;3.03;;;717.10;2022.40;;;;;;5090104;28;20046;-61
2023/08/02 11:05:35;;;;;;;3.72;2.40;;;692.10;2022.40;;;;;;5089908;28;20471;-61
2023/08/02 11:08:01;;;;;;;3.28;2.40;;;716.90;2073.60;;;;;;5090162;28;20043;-62
2023/08/02 11:10:27;;;;;;;6.80;3.03;;;692.00;2073.60;;;;;;5090257;28;20398;-62
2023/08/02 11:12:54;;;;;;;6.40;5.80;;;;;;;;;;5090223;28;20035;-61
2023/08/02 11:15:21;;;;;;;4.75;3.35;;;692.10;2124.80;;;;;;5090393;28;20031;-62
2023/08/02 11:17:53;;;;;;;3.85;2.75;;;691.90;2048.00;;;;;;5090345;28;20543;-62
2023/08/02 11:20:28;;;;;;;4.78;2.30;;;691.30;2099.20;;;;;;5089269;28;20024;-62
2023/08/02 11:22:54;;;;;;;4.50;2.30;;;691.30;2073.60;;;;;;5089599;28;20051;-62
2023/08/02 11:25:23;;;;;;;3.78;2.15;;;691.60;2099.20;;;;;;5089976;28;20020;-64
2023/08/02 11:28:09;;;;;;;3.20;1.95;;;692.10;2048.00;;;;;;5090423;28;20107;-63
2023/08/02 11:30:35;;;;;;;5.05;2.10;;;691.80;2048.00;;;;;;5089621;28;20036;-61
2023/08/02 11:33:01;;;;;;;2.65;1.90;;;692.10;2022.40;;;;;;5089679;28;20028;-61
2023/08/02 11:35:27;;;;;;;3.50;2.20;;;717.00;2073.60;;;;;;5076416;28;20066;-63
2023/08/02 11:37:52;;;;;;;4.88;2.25;;;717.10;2048.00;;;;;;5089459;28;20020;-63
2023/08/02 11:40:18;;;;;;;3.75;2.00;;;717.20;2048.00;;;;;;5089417;28;20040;-62
2023/08/02 11:42:51;;;;;;;5.85;2.38;;;717.70;2048.00;;;;;;5082178;28;20131;-62
2023/08/02 11:45:37;;;;;;;3.22;2.22;;;742.40;2048.00;;;;;;5069739;28;20051;-62
2023/08/02 11:48:04;;;;;;;2.50;2.00;;;717.50;2022.40;;;;;;5069112;28;20036;-63
2023/08/02 11:50:34;;;;;;;3.95;2.38;;;717.30;2022.40;;;;;;5069374;28;20109;-63
2023/08/02 11:53:08;;;;;;;3.38;2.00;;;716.80;2073.60;;;;;;5069656;28;20059;-63
2023/08/02 11:55:38;;;;;;;2.33;1.83;;;716.80;2073.60;;;;;;5069733;28;20032;-63
2023/08/02 11:58:07;;;;;;;3.67;2.08;;;692.10;2048.00;;;;;;5069561;28;20077;-62
2023/08/02 12:00:34;;;;;;;9.30;2.38;;;716.80;2073.60;;;;;;5069282;28;20142;-61
2023/08/02 12:03:14;;;;;;;3.67;2.22;;;691.90;2073.60;;;;;;5086071;28;20469;-63
2023/08/02 12:05:41;;;;;;;3.65;2.15;;;691.80;2073.60;;;;;;5071562;28;20470;-63
2023/08/02 12:08:17;;;;;;;5.45;2.05;;;691.60;2073.60;;;;;;5076705;28;20039;-63
2023/08/02 12:10:43;;;;;;;3.35;2.03;;;691.90;2073.60;;;;;;5075831;28;20025;-61
2023/08/02 12:13:14;;;;;;;3.70;2.30;;;691.90;2099.20;;;;;;5089400;28;20354;-63
2023/08/02 12:16:01;;;;;;;3.78;2.38;;;691.80;2073.60;;;;;;5089261;28;20091;-61
2023/08/02 12:18:27;;;;;;;8.63;2.50;;;716.80;2099.20;;;;;;5089326;28;20429;-62
2023/08/02 12:20:53;;;;;;;3.05;2.20;;;716.80;2124.80;;;;;;5089411;28;20389;-63
2023/08/02 12:23:33;;;;;;;3.42;2.40;;;716.80;2124.80;;;;;;5088668;28;20036;-63